sensor_id;sensor_type;location;lat;lon;timestamp;temperature;humidity
22235;DHT22;11286;45.596;5.284;2023-04-25T00:00:19;13.40;99.90
22235;DHT22;11286;45.596;5.284;2023-04-25T00:02:44;13.30;99.90
22235;DHT22;11286;45.596;5.284;2023-04-25T00:05:12;13.10;99.90
22235;DHT22;11286;45.596;5.284;2023-04-25T00:07:37;13.10;99.90
22235;DHT22;11286;45.596;5.284;2023-04-25T00:10:04;12.70;99.90
22235;DHT22;11286;45.596;5.284;2023-04-25T00:12:30;13.20;99.90
22235;DHT22;11286;45.596;5.284;2023-04-25T00:14:55;13.20;99.90
22235;DHT22;11286;45.596;5.284;2023-04-25T00:17:25;13.20;99.90
22235;DHT22;11286;45.596;5.284;2023-04-25T00:19:52;13.20;99.90
22235;DHT22;11286;45.596;5.284;2023-04-25T00:22:18;13.20;99.90
22235;DHT22;11286;45.596;5.284;2023-04-25T00:24:43;13.20;99.90
22235;DHT22;11286;45.596;5.284;2023-04-25T00:27:09;13.30;99.90
22235;DHT22;11286;45.596;5.284;2023-04-25T00:29:35;13.30;99.90
22235;DHT22;11286;45.596;5.284;2023-04-25T00:32:01;13.20;99.90
22235;DHT22;11286;45.596;5.284;2023-04-25T00:34:27;13.10;99.90
22235;DHT22;11286;45.596;5.284;2023-04-25T00:36:52;13.10;99.90
22235;DHT22;11286;45.596;5.284;2023-04-25T00:39:18;13.10;99.90
22235;DHT22;11286;45.596;5.284;2023-04-25T00:41:45;13.10;99.90
22235;DHT22;11286;45.596;5.284;2023-04-25T00:44:11;13.00;99.90
22235;DHT22;11286;45.596;5.284;2023-04-25T00:46:39;13.10;99.90
22235;DHT22;11286;45.596;5.284;2023-04-25T00:49:05;13.10;99.90
22235;DHT22;11286;45.596;5.284;2023-04-25T00:51:31;13.00;99.90
22235;DHT22;11286;45.596;5.284;2023-04-25T00:53:58;13.10;99.90
22235;DHT22;11286;45.596;5.284;2023-04-25T00:56:24;13.00;99.90
22235;DHT22;11286;45.596;5.284;2023-04-25T00:58:53;13.10;99.90
22235;DHT22;11286;45.596;5.284;2023-04-25T01:01:22;13.00;99.90
22235;DHT22;11286;45.596;5.284;2023-04-25T01:03:48;12.90;99.90
22235;DHT22;11286;45.596;5.284;2023-04-25T01:06:15;12.90;99.90
22235;DHT22;11286;45.596;5.284;2023-04-25T01:08:41;12.90;99.90
22235;DHT22;11286;45.596;5.284;2023-04-25T01:11:07;12.90;99.90
22235;DHT22;11286;45.596;5.284;2023-04-25T01:13:33;12.90;99.90
22235;DHT22;11286;45.596;5.284;2023-04-25T01:16:00;12.90;99.90
22235;DHT22;11286;45.596;5.284;2023-04-25T01:18:26;12.90;99.90
22235;DHT22;11286;45.596;5.284;2023-04-25T01:20:52;12.90;99.90
22235;DHT22;11286;45.596;5.284;2023-04-25T01:23:20;12.90;99.90
22235;DHT22;11286;45.596;5.284;2023-04-25T01:25:47;12.90;99.90
22235;DHT22;11286;45.596;5.284;2023-04-25T01:28:13;12.90;99.90
22235;DHT22;11286;45.596;5.284;2023-04-25T01:30:39;12.70;99.90
22235;DHT22;11286;45.596;5.284;2023-04-25T01:33:07;12.70;99.90
22235;DHT22;11286;45.596;5.284;2023-04-25T01:35:33;12.60;99.90
22235;DHT22;11286;45.596;5.284;2023-04-25T01:38:00;12.60;99.90
22235;DHT22;11286;45.596;5.284;2023-04-25T01:40:27;12.50;99.90
22235;DHT22;11286;45.596;5.284;2023-04-25T01:42:53;12.40;99.90
22235;DHT22;11286;45.596;5.284;2023-04-25T01:45:19;12.30;99.90
22235;DHT22;11286;45.596;5.284;2023-04-25T01:47:45;12.30;99.90
22235;DHT22;11286;45.596;5.284;2023-04-25T01:50:15;12.30;99.90
22235;DHT22;11286;45.596;5.284;2023-04-25T01:52:41;12.40;99.90
22235;DHT22;11286;45.596;5.284;2023-04-25T01:55:07;12.20;99.90
22235;DHT22;11286;45.596;5.284;2023-04-25T01:57:33;12.10;99.90
22235;DHT22;11286;45.596;5.284;2023-04-25T02:00:00;12.30;99.90
22235;DHT22;11286;45.596;5.284;2023-04-25T02:02:26;12.20;99.90
22235;DHT22;11286;45.596;5.284;2023-04-25T02:04:52;12.30;99.90
22235;DHT22;11286;45.596;5.284;2023-04-25T02:07:19;12.30;99.90
22235;DHT22;11286;45.596;5.284;2023-04-25T02:09:45;12.40;99.90
22235;DHT22;11286;45.596;5.284;2023-04-25T02:12:11;12.40;99.90
22235;DHT22;11286;45.596;5.284;2023-04-25T02:14:37;12.50;99.90
22235;DHT22;11286;45.596;5.284;2023-04-25T02:17:02;12.40;99.90
22235;DHT22;11286;45.596;5.284;2023-04-25T02:19:28;12.40;99.90
22235;DHT22;11286;45.596;5.284;2023-04-25T02:21:53;12.60;99.90
22235;DHT22;11286;45.596;5.284;2023-04-25T02:24:19;12.60;99.90
22235;DHT22;11286;45.596;5.284;2023-04-25T02:26:45;12.60;99.90
22235;DHT22;11286;45.596;5.284;2023-04-25T02:29:12;12.50;99.90
22235;DHT22;11286;45.596;5.284;2023-04-25T02:31:38;12.50;99.90
22235;DHT22;11286;45.596;5.284;2023-04-25T02:34:03;12.50;99.90
22235;DHT22;11286;45.596;5.284;2023-04-25T02:36:30;12.60;99.90
22235;DHT22;11286;45.596;5.284;2023-04-25T02:38:59;12.40;99.90
22235;DHT22;11286;45.596;5.284;2023-04-25T02:41:25;12.50;99.90
22235;DHT22;11286;45.596;5.284;2023-04-25T02:43:51;12.50;99.90
22235;DHT22;11286;45.596;5.284;2023-04-25T02:46:17;12.50;99.90
22235;DHT22;11286;45.596;5.284;2023-04-25T02:48:42;12.50;99.90
22235;DHT22;11286;45.596;5.284;2023-04-25T02:51:08;12.50;99.90
22235;DHT22;11286;45.596;5.284;2023-04-25T02:53:34;12.60;99.90
22235;DHT22;11286;45.596;5.284;2023-04-25T02:56:00;12.50;99.90
22235;DHT22;11286;45.596;5.284;2023-04-25T02:58:26;12.50;99.90
22235;DHT22;11286;45.596;5.284;2023-04-25T03:00:51;12.50;99.90
22235;DHT22;11286;45.596;5.284;2023-04-25T03:03:17;12.50;99.90
22235;DHT22;11286;45.596;5.284;2023-04-25T03:05:43;12.60;99.90
22235;DHT22;11286;45.596;5.284;2023-04-25T03:08:09;12.50;99.90
22235;DHT22;11286;45.596;5.284;2023-04-25T03:10:35;12.60;99.90
22235;DHT22;11286;45.596;5.284;2023-04-25T03:13:01;12.60;99.90
22235;DHT22;11286;45.596;5.284;2023-04-25T03:15:26;12.50;99.90
22235;DHT22;11286;45.596;5.284;2023-04-25T03:17:52;12.50;99.90
22235;DHT22;11286;45.596;5.284;2023-04-25T03:20:18;12.40;99.90
22235;DHT22;11286;45.596;5.284;2023-04-25T03:22:43;12.50;99.90
22235;DHT22;11286;45.596;5.284;2023-04-25T03:25:10;12.50;99.90
22235;DHT22;11286;45.596;5.284;2023-04-25T03:27:35;12.40;99.90
22235;DHT22;11286;45.596;5.284;2023-04-25T03:30:01;12.40;99.90
22235;DHT22;11286;45.596;5.284;2023-04-25T03:32:27;12.40;99.90
22235;DHT22;11286;45.596;5.284;2023-04-25T03:34:52;12.30;99.90
22235;DHT22;11286;45.596;5.284;2023-04-25T03:37:18;12.30;99.90
22235;DHT22;11286;45.596;5.284;2023-04-25T03:39:43;12.30;99.90
22235;DHT22;11286;45.596;5.284;2023-04-25T03:42:09;12.20;99.90
22235;DHT22;11286;45.596;5.284;2023-04-25T03:44:35;12.10;99.90
22235;DHT22;11286;45.596;5.284;2023-04-25T03:47:00;12.00;99.90
22235;DHT22;11286;45.596;5.284;2023-04-25T03:49:26;12.00;99.90
22235;DHT22;11286;45.596;5.284;2023-04-25T03:51:52;12.00;99.90
22235;DHT22;11286;45.596;5.284;2023-04-25T03:54:17;11.90;99.90
22235;DHT22;11286;45.596;5.284;2023-04-25T03:56:43;12.00;99.90
22235;DHT22;11286;45.596;5.284;2023-04-25T03:59:09;11.80;99.90
22235;DHT22;11286;45.596;5.284;2023-04-25T04:01:34;11.90;99.90
22235;DHT22;11286;45.596;5.284;2023-04-25T04:04:00;11.90;99.90
22235;DHT22;11286;45.596;5.284;2023-04-25T04:06:26;11.90;99.90
22235;DHT22;11286;45.596;5.284;2023-04-25T04:08:52;12.00;99.90
22235;DHT22;11286;45.596;5.284;2023-04-25T04:11:17;11.90;99.90
22235;DHT22;11286;45.596;5.284;2023-04-25T04:13:43;11.90;99.90
22235;DHT22;11286;45.596;5.284;2023-04-25T04:16:09;12.00;99.90
22235;DHT22;11286;45.596;5.284;2023-04-25T04:18:35;11.90;99.90
22235;DHT22;11286;45.596;5.284;2023-04-25T04:21:01;12.00;99.90
22235;DHT22;11286;45.596;5.284;2023-04-25T04:23:26;11.90;99.90
22235;DHT22;11286;45.596;5.284;2023-04-25T04:25:53;12.00;99.90
22235;DHT22;11286;45.596;5.284;2023-04-25T04:28:19;12.00;99.90
22235;DHT22;11286;45.596;5.284;2023-04-25T04:30:45;12.00;99.90
22235;DHT22;11286;45.596;5.284;2023-04-25T04:33:11;11.90;99.90
22235;DHT22;11286;45.596;5.284;2023-04-25T04:35:37;12.00;99.90
22235;DHT22;11286;45.596;5.284;2023-04-25T04:38:03;12.00;99.90
22235;DHT22;11286;45.596;5.284;2023-04-25T04:40:29;12.10;99.90
22235;DHT22;11286;45.596;5.284;2023-04-25T04:42:56;12.20;99.90
22235;DHT22;11286;45.596;5.284;2023-04-25T04:45:23;12.10;99.90
22235;DHT22;11286;45.596;5.284;2023-04-25T04:47:49;12.20;99.90
22235;DHT22;11286;45.596;5.284;2023-04-25T04:50:15;12.10;99.90
22235;DHT22;11286;45.596;5.284;2023-04-25T04:52:41;12.20;99.90
22235;DHT22;11286;45.596;5.284;2023-04-25T04:55:07;12.30;99.90
22235;DHT22;11286;45.596;5.284;2023-04-25T04:57:33;12.30;99.90
22235;DHT22;11286;45.596;5.284;2023-04-25T05:00:00;12.30;99.90
22235;DHT22;11286;45.596;5.284;2023-04-25T05:02:26;12.40;99.90
22235;DHT22;11286;45.596;5.284;2023-04-25T05:04:52;12.40;99.90
22235;DHT22;11286;45.596;5.284;2023-04-25T05:07:18;12.40;99.90
22235;DHT22;11286;45.596;5.284;2023-04-25T05:09:44;12.30;99.90
22235;DHT22;11286;45.596;5.284;2023-04-25T05:12:10;12.40;99.90
22235;DHT22;11286;45.596;5.284;2023-04-25T05:14:36;12.50;99.90
22235;DHT22;11286;45.596;5.284;2023-04-25T05:17:02;12.40;99.90
22235;DHT22;11286;45.596;5.284;2023-04-25T05:19:30;12.40;99.90
22235;DHT22;11286;45.596;5.284;2023-04-25T05:21:56;12.30;99.90
22235;DHT22;11286;45.596;5.284;2023-04-25T05:24:21;12.40;99.90
22235;DHT22;11286;45.596;5.284;2023-04-25T05:26:47;12.20;99.90
22235;DHT22;11286;45.596;5.284;2023-04-25T05:29:12;12.30;99.90
22235;DHT22;11286;45.596;5.284;2023-04-25T05:31:38;12.30;99.90
22235;DHT22;11286;45.596;5.284;2023-04-25T05:34:04;12.20;99.90
22235;DHT22;11286;45.596;5.284;2023-04-25T05:36:29;12.30;99.90
22235;DHT22;11286;45.596;5.284;2023-04-25T05:38:56;12.20;99.90
22235;DHT22;11286;45.596;5.284;2023-04-25T05:41:21;12.40;99.90
22235;DHT22;11286;45.596;5.284;2023-04-25T05:43:47;12.60;99.90
22235;DHT22;11286;45.596;5.284;2023-04-25T05:46:14;12.50;99.90
22235;DHT22;11286;45.596;5.284;2023-04-25T05:48:42;12.40;99.90
22235;DHT22;11286;45.596;5.284;2023-04-25T05:51:08;12.50;99.90
22235;DHT22;11286;45.596;5.284;2023-04-25T05:53:34;12.70;99.90
22235;DHT22;11286;45.596;5.284;2023-04-25T05:56:01;12.70;99.90
22235;DHT22;11286;45.596;5.284;2023-04-25T05:58:26;12.80;99.90
22235;DHT22;11286;45.596;5.284;2023-04-25T06:00:52;13.00;99.90
22235;DHT22;11286;45.596;5.284;2023-04-25T06:03:18;13.00;99.90
22235;DHT22;11286;45.596;5.284;2023-04-25T06:05:44;12.90;99.90
22235;DHT22;11286;45.596;5.284;2023-04-25T06:08:10;12.90;99.90
22235;DHT22;11286;45.596;5.284;2023-04-25T06:10:36;12.70;99.90
22235;DHT22;11286;45.596;5.284;2023-04-25T06:13:02;12.90;99.90
22235;DHT22;11286;45.596;5.284;2023-04-25T06:15:28;13.00;99.90
22235;DHT22;11286;45.596;5.284;2023-04-25T06:17:54;13.10;99.90
22235;DHT22;11286;45.596;5.284;2023-04-25T06:20:20;13.30;99.90
22235;DHT22;11286;45.596;5.284;2023-04-25T06:22:49;13.20;99.90
22235;DHT22;11286;45.596;5.284;2023-04-25T06:25:15;13.30;99.90
22235;DHT22;11286;45.596;5.284;2023-04-25T06:27:41;13.50;99.90
22235;DHT22;11286;45.596;5.284;2023-04-25T06:30:07;13.50;99.90
22235;DHT22;11286;45.596;5.284;2023-04-25T06:32:32;13.40;99.90
22235;DHT22;11286;45.596;5.284;2023-04-25T06:35:00;13.30;99.90
22235;DHT22;11286;45.596;5.284;2023-04-25T06:37:25;13.30;99.90
22235;DHT22;11286;45.596;5.284;2023-04-25T06:39:51;13.30;99.90
22235;DHT22;11286;45.596;5.284;2023-04-25T06:42:17;13.30;99.90
22235;DHT22;11286;45.596;5.284;2023-04-25T06:44:42;13.40;99.90
22235;DHT22;11286;45.596;5.284;2023-04-25T06:47:08;13.50;99.90
22235;DHT22;11286;45.596;5.284;2023-04-25T06:49:34;13.60;99.90
22235;DHT22;11286;45.596;5.284;2023-04-25T06:51:59;13.60;99.90
22235;DHT22;11286;45.596;5.284;2023-04-25T06:54:25;13.50;99.90
22235;DHT22;11286;45.596;5.284;2023-04-25T06:56:53;13.60;99.90
22235;DHT22;11286;45.596;5.284;2023-04-25T06:59:18;13.40;99.90
22235;DHT22;11286;45.596;5.284;2023-04-25T07:01:44;13.50;99.90
22235;DHT22;11286;45.596;5.284;2023-04-25T07:04:10;13.50;99.90
22235;DHT22;11286;45.596;5.284;2023-04-25T07:06:35;13.40;99.90
22235;DHT22;11286;45.596;5.284;2023-04-25T07:09:03;13.50;99.90
22235;DHT22;11286;45.596;5.284;2023-04-25T07:11:30;13.60;99.90
22235;DHT22;11286;45.596;5.284;2023-04-25T07:13:56;13.60;99.90
22235;DHT22;11286;45.596;5.284;2023-04-25T07:16:21;13.60;99.90
22235;DHT22;11286;45.596;5.284;2023-04-25T07:18:47;13.50;99.90
22235;DHT22;11286;45.596;5.284;2023-04-25T07:21:12;13.60;99.90
22235;DHT22;11286;45.596;5.284;2023-04-25T07:23:38;13.70;99.90
22235;DHT22;11286;45.596;5.284;2023-04-25T07:26:06;13.90;99.90
22235;DHT22;11286;45.596;5.284;2023-04-25T07:28:31;13.90;99.90
22235;DHT22;11286;45.596;5.284;2023-04-25T07:30:57;14.00;99.90
22235;DHT22;11286;45.596;5.284;2023-04-25T07:33:23;14.20;99.90
22235;DHT22;11286;45.596;5.284;2023-04-25T07:35:49;14.20;99.90
22235;DHT22;11286;45.596;5.284;2023-04-25T07:38:15;14.20;99.90
22235;DHT22;11286;45.596;5.284;2023-04-25T07:40:41;13.90;99.90
22235;DHT22;11286;45.596;5.284;2023-04-25T07:43:07;14.20;99.90
22235;DHT22;11286;45.596;5.284;2023-04-25T07:45:32;14.40;99.90
22235;DHT22;11286;45.596;5.284;2023-04-25T07:47:58;14.40;99.90
22235;DHT22;11286;45.596;5.284;2023-04-25T07:50:24;14.50;99.90
22235;DHT22;11286;45.596;5.284;2023-04-25T07:52:49;14.50;99.90
22235;DHT22;11286;45.596;5.284;2023-04-25T07:55:15;14.40;99.90
22235;DHT22;11286;45.596;5.284;2023-04-25T07:57:41;14.00;99.90
22235;DHT22;11286;45.596;5.284;2023-04-25T08:00:07;14.40;99.90
22235;DHT22;11286;45.596;5.284;2023-04-25T08:02:35;14.70;99.90
22235;DHT22;11286;45.596;5.284;2023-04-25T08:05:02;14.80;99.90
22235;DHT22;11286;45.596;5.284;2023-04-25T08:07:27;15.10;99.90
22235;DHT22;11286;45.596;5.284;2023-04-25T08:09:54;15.10;99.90
22235;DHT22;11286;45.596;5.284;2023-04-25T08:12:20;15.20;99.90
22235;DHT22;11286;45.596;5.284;2023-04-25T08:14:45;15.00;99.90
22235;DHT22;11286;45.596;5.284;2023-04-25T08:17:11;15.10;99.90
22235;DHT22;11286;45.596;5.284;2023-04-25T08:19:37;15.50;99.90
22235;DHT22;11286;45.596;5.284;2023-04-25T08:22:03;15.90;99.90
22235;DHT22;11286;45.596;5.284;2023-04-25T08:24:28;15.70;99.90
22235;DHT22;11286;45.596;5.284;2023-04-25T08:26:54;15.20;99.90
22235;DHT22;11286;45.596;5.284;2023-04-25T08:29:20;15.30;99.90
22235;DHT22;11286;45.596;5.284;2023-04-25T08:31:45;14.90;99.90
22235;DHT22;11286;45.596;5.284;2023-04-25T08:34:11;15.00;99.90
22235;DHT22;11286;45.596;5.284;2023-04-25T08:36:37;15.20;99.90
22235;DHT22;11286;45.596;5.284;2023-04-25T08:39:02;15.30;99.90
22235;DHT22;11286;45.596;5.284;2023-04-25T08:41:28;15.40;99.90
22235;DHT22;11286;45.596;5.284;2023-04-25T08:43:56;15.70;99.90
22235;DHT22;11286;45.596;5.284;2023-04-25T08:46:23;15.50;99.90
22235;DHT22;11286;45.596;5.284;2023-04-25T08:48:49;15.40;99.90
22235;DHT22;11286;45.596;5.284;2023-04-25T08:51:22;15.30;99.90
22235;DHT22;11286;45.596;5.284;2023-04-25T08:53:51;15.20;99.90
22235;DHT22;11286;45.596;5.284;2023-04-25T08:56:17;15.30;99.90
22235;DHT22;11286;45.596;5.284;2023-04-25T08:58:44;16.00;99.90
22235;DHT22;11286;45.596;5.284;2023-04-25T09:01:11;15.90;99.90
22235;DHT22;11286;45.596;5.284;2023-04-25T09:03:37;15.90;99.90
22235;DHT22;11286;45.596;5.284;2023-04-25T09:06:03;16.20;99.90
22235;DHT22;11286;45.596;5.284;2023-04-25T09:08:30;16.30;99.90
22235;DHT22;11286;45.596;5.284;2023-04-25T09:10:55;15.80;99.90
22235;DHT22;11286;45.596;5.284;2023-04-25T09:13:26;16.00;99.90
22235;DHT22;11286;45.596;5.284;2023-04-25T09:15:57;15.70;99.90
22235;DHT22;11286;45.596;5.284;2023-04-25T09:18:24;15.90;99.90
22235;DHT22;11286;45.596;5.284;2023-04-25T09:20:52;15.80;99.90
22235;DHT22;11286;45.596;5.284;2023-04-25T09:23:19;16.00;99.90
22235;DHT22;11286;45.596;5.284;2023-04-25T09:25:48;15.90;99.90
22235;DHT22;11286;45.596;5.284;2023-04-25T09:28:13;15.60;99.90
22235;DHT22;11286;45.596;5.284;2023-04-25T09:30:39;15.60;99.90
22235;DHT22;11286;45.596;5.284;2023-04-25T09:33:06;15.50;99.90
22235;DHT22;11286;45.596;5.284;2023-04-25T09:35:36;15.60;99.90
22235;DHT22;11286;45.596;5.284;2023-04-25T09:38:10;15.70;99.90
22235;DHT22;11286;45.596;5.284;2023-04-25T09:40:44;15.80;99.90
22235;DHT22;11286;45.596;5.284;2023-04-25T09:43:30;15.90;99.90
22235;DHT22;11286;45.596;5.284;2023-04-25T09:45:55;16.10;99.90
22235;DHT22;11286;45.596;5.284;2023-04-25T09:48:26;16.30;99.90
22235;DHT22;11286;45.596;5.284;2023-04-25T09:51:14;16.20;99.90
22235;DHT22;11286;45.596;5.284;2023-04-25T09:53:41;16.10;99.90
22235;DHT22;11286;45.596;5.284;2023-04-25T09:56:11;16.20;99.90
22235;DHT22;11286;45.596;5.284;2023-04-25T09:58:39;16.30;99.90
22235;DHT22;11286;45.596;5.284;2023-04-25T10:01:06;16.50;99.90
22235;DHT22;11286;45.596;5.284;2023-04-25T10:03:34;16.70;99.90
22235;DHT22;11286;45.596;5.284;2023-04-25T10:06:02;17.10;99.90
22235;DHT22;11286;45.596;5.284;2023-04-25T10:08:33;17.10;99.90
22235;DHT22;11286;45.596;5.284;2023-04-25T10:11:00;16.80;99.90
22235;DHT22;11286;45.596;5.284;2023-04-25T10:13:31;17.00;99.90
22235;DHT22;11286;45.596;5.284;2023-04-25T10:15:59;16.90;99.90
22235;DHT22;11286;45.596;5.284;2023-04-25T10:18:29;16.90;99.90
22235;DHT22;11286;45.596;5.284;2023-04-25T10:20:59;16.90;99.90
22235;DHT22;11286;45.596;5.284;2023-04-25T10:23:25;16.80;99.90
22235;DHT22;11286;45.596;5.284;2023-04-25T10:25:52;16.80;99.90
22235;DHT22;11286;45.596;5.284;2023-04-25T10:28:19;16.80;99.90
22235;DHT22;11286;45.596;5.284;2023-04-25T10:31:07;16.90;99.90
22235;DHT22;11286;45.596;5.284;2023-04-25T10:33:38;16.80;99.90
22235;DHT22;11286;45.596;5.284;2023-04-25T10:36:15;17.30;99.90
22235;DHT22;11286;45.596;5.284;2023-04-25T10:38:43;17.30;99.90
22235;DHT22;11286;45.596;5.284;2023-04-25T10:41:09;17.50;99.90
22235;DHT22;11286;45.596;5.284;2023-04-25T10:43:46;17.80;99.90
22235;DHT22;11286;45.596;5.284;2023-04-25T10:46:27;17.70;99.90
22235;DHT22;11286;45.596;5.284;2023-04-25T10:48:56;18.50;99.90
22235;DHT22;11286;45.596;5.284;2023-04-25T10:51:24;18.30;99.90
22235;DHT22;11286;45.596;5.284;2023-04-25T10:53:57;18.80;99.90
22235;DHT22;11286;45.596;5.284;2023-04-25T10:58:51;18.90;99.90
22235;DHT22;11286;45.596;5.284;2023-04-25T11:01:21;20.00;99.90
22235;DHT22;11286;45.596;5.284;2023-04-25T11:03:57;21.90;99.90
22235;DHT22;11286;45.596;5.284;2023-04-25T11:06:31;23.50;99.90
22235;DHT22;11286;45.596;5.284;2023-04-25T11:09:03;24.90;99.90
22235;DHT22;11286;45.596;5.284;2023-04-25T11:11:36;24.90;99.90
22235;DHT22;11286;45.596;5.284;2023-04-25T11:14:03;25.40;99.90
22235;DHT22;11286;45.596;5.284;2023-04-25T11:16:29;25.20;99.90
22235;DHT22;11286;45.596;5.284;2023-04-25T11:18:57;25.30;99.90
22235;DHT22;11286;45.596;5.284;2023-04-25T11:21:25;25.80;99.90
22235;DHT22;11286;45.596;5.284;2023-04-25T11:23:51;23.60;99.90
22235;DHT22;11286;45.596;5.284;2023-04-25T11:26:19;24.80;99.90
22235;DHT22;11286;45.596;5.284;2023-04-25T11:28:45;26.10;99.90
22235;DHT22;11286;45.596;5.284;2023-04-25T11:31:12;26.00;99.90
22235;DHT22;11286;45.596;5.284;2023-04-25T11:33:38;27.30;99.90
22235;DHT22;11286;45.596;5.284;2023-04-25T11:36:03;28.20;99.90
22235;DHT22;11286;45.596;5.284;2023-04-25T11:38:30;26.50;99.90
22235;DHT22;11286;45.596;5.284;2023-04-25T11:40:56;24.00;99.90
22235;DHT22;11286;45.596;5.284;2023-04-25T11:43:22;22.10;99.90
22235;DHT22;11286;45.596;5.284;2023-04-25T11:45:49;21.30;99.90
22235;DHT22;11286;45.596;5.284;2023-04-25T11:48:16;21.00;99.90
22235;DHT22;11286;45.596;5.284;2023-04-25T11:50:42;22.60;99.90
22235;DHT22;11286;45.596;5.284;2023-04-25T11:53:07;25.10;99.90
22235;DHT22;11286;45.596;5.284;2023-04-25T11:55:34;24.00;99.90
22235;DHT22;11286;45.596;5.284;2023-04-25T11:58:00;23.70;99.90
22235;DHT22;11286;45.596;5.284;2023-04-25T12:00:26;24.40;99.90
22235;DHT22;11286;45.596;5.284;2023-04-25T12:02:54;25.30;99.90
22235;DHT22;11286;45.596;5.284;2023-04-25T12:05:23;25.60;99.90
22235;DHT22;11286;45.596;5.284;2023-04-25T12:07:48;26.60;99.90
22235;DHT22;11286;45.596;5.284;2023-04-25T12:10:16;27.10;99.90
22235;DHT22;11286;45.596;5.284;2023-04-25T12:12:43;27.10;99.90
22235;DHT22;11286;45.596;5.284;2023-04-25T12:15:14;25.20;99.90
22235;DHT22;11286;45.596;5.284;2023-04-25T12:17:42;25.80;99.90
22235;DHT22;11286;45.596;5.284;2023-04-25T12:20:10;26.40;99.90
22235;DHT22;11286;45.596;5.284;2023-04-25T12:22:35;26.20;99.90
22235;DHT22;11286;45.596;5.284;2023-04-25T12:25:02;26.50;99.90
22235;DHT22;11286;45.596;5.284;2023-04-25T12:27:31;26.60;99.90
22235;DHT22;11286;45.596;5.284;2023-04-25T12:29:57;26.50;99.90
22235;DHT22;11286;45.596;5.284;2023-04-25T12:32:23;26.30;99.90
22235;DHT22;11286;45.596;5.284;2023-04-25T12:34:49;26.60;99.90
22235;DHT22;11286;45.596;5.284;2023-04-25T12:37:14;27.50;99.90
22235;DHT22;11286;45.596;5.284;2023-04-25T12:39:40;28.70;99.90
22235;DHT22;11286;45.596;5.284;2023-04-25T12:42:06;28.60;99.90
22235;DHT22;11286;45.596;5.284;2023-04-25T12:44:33;29.00;99.90
22235;DHT22;11286;45.596;5.284;2023-04-25T12:46:59;25.90;99.90
22235;DHT22;11286;45.596;5.284;2023-04-25T12:49:25;24.50;99.90
22235;DHT22;11286;45.596;5.284;2023-04-25T12:51:51;23.90;99.90
22235;DHT22;11286;45.596;5.284;2023-04-25T12:54:17;25.20;99.90
22235;DHT22;11286;45.596;5.284;2023-04-25T12:56:43;26.40;99.90
22235;DHT22;11286;45.596;5.284;2023-04-25T12:59:08;26.80;99.90
22235;DHT22;11286;45.596;5.284;2023-04-25T13:01:34;25.80;99.90
22235;DHT22;11286;45.596;5.284;2023-04-25T13:04:00;26.90;99.90
22235;DHT22;11286;45.596;5.284;2023-04-25T13:06:26;28.00;99.90
22235;DHT22;11286;45.596;5.284;2023-04-25T13:08:52;27.60;99.90
22235;DHT22;11286;45.596;5.284;2023-04-25T13:11:18;27.20;99.90
22235;DHT22;11286;45.596;5.284;2023-04-25T13:13:44;27.90;99.90
22235;DHT22;11286;45.596;5.284;2023-04-25T13:16:10;28.20;99.90
22235;DHT22;11286;45.596;5.284;2023-04-25T13:18:36;27.80;99.90
22235;DHT22;11286;45.596;5.284;2023-04-25T13:21:02;27.50;99.90
22235;DHT22;11286;45.596;5.284;2023-04-25T13:23:29;27.00;99.90
22235;DHT22;11286;45.596;5.284;2023-04-25T13:25:55;25.20;99.90
22235;DHT22;11286;45.596;5.284;2023-04-25T13:28:26;23.80;99.90
22235;DHT22;11286;45.596;5.284;2023-04-25T13:30:51;22.70;99.90
22235;DHT22;11286;45.596;5.284;2023-04-25T13:33:18;22.30;99.90
22235;DHT22;11286;45.596;5.284;2023-04-25T13:35:44;23.30;99.90
22235;DHT22;11286;45.596;5.284;2023-04-25T13:38:12;25.10;99.90
22235;DHT22;11286;45.596;5.284;2023-04-25T13:40:38;25.50;99.90
22235;DHT22;11286;45.596;5.284;2023-04-25T13:43:04;26.00;99.90
22235;DHT22;11286;45.596;5.284;2023-04-25T13:45:31;26.30;99.90
22235;DHT22;11286;45.596;5.284;2023-04-25T13:47:57;25.80;99.90
22235;DHT22;11286;45.596;5.284;2023-04-25T13:50:23;24.50;99.90
22235;DHT22;11286;45.596;5.284;2023-04-25T13:52:48;23.60;99.90
22235;DHT22;11286;45.596;5.284;2023-04-25T13:55:14;23.60;99.90
22235;DHT22;11286;45.596;5.284;2023-04-25T13:57:40;24.40;99.90
22235;DHT22;11286;45.596;5.284;2023-04-25T14:00:06;24.30;99.90
22235;DHT22;11286;45.596;5.284;2023-04-25T14:02:34;24.30;99.90
22235;DHT22;11286;45.596;5.284;2023-04-25T14:05:00;24.20;99.90
22235;DHT22;11286;45.596;5.284;2023-04-25T14:07:26;23.60;99.90
22235;DHT22;11286;45.596;5.284;2023-04-25T14:09:52;23.70;99.90
22235;DHT22;11286;45.596;5.284;2023-04-25T14:12:17;24.30;99.90
22235;DHT22;11286;45.596;5.284;2023-04-25T14:14:43;23.90;99.90
22235;DHT22;11286;45.596;5.284;2023-04-25T14:17:09;23.10;99.90
22235;DHT22;11286;45.596;5.284;2023-04-25T14:19:34;23.20;99.90
22235;DHT22;11286;45.596;5.284;2023-04-25T14:22:00;23.70;99.90
22235;DHT22;11286;45.596;5.284;2023-04-25T14:24:25;24.10;99.90
22235;DHT22;11286;45.596;5.284;2023-04-25T14:26:51;24.10;99.90
22235;DHT22;11286;45.596;5.284;2023-04-25T14:29:17;23.90;99.90
22235;DHT22;11286;45.596;5.284;2023-04-25T14:31:42;24.40;99.90
22235;DHT22;11286;45.596;5.284;2023-04-25T14:34:08;24.10;99.90
22235;DHT22;11286;45.596;5.284;2023-04-25T14:36:35;24.00;99.90
22235;DHT22;11286;45.596;5.284;2023-04-25T14:39:01;23.30;99.90
22235;DHT22;11286;45.596;5.284;2023-04-25T14:41:27;23.10;99.90
22235;DHT22;11286;45.596;5.284;2023-04-25T14:43:53;22.90;99.90
22235;DHT22;11286;45.596;5.284;2023-04-25T14:46:19;23.30;99.90
22235;DHT22;11286;45.596;5.284;2023-04-25T14:48:45;23.00;99.90
22235;DHT22;11286;45.596;5.284;2023-04-25T14:51:12;23.00;99.90
22235;DHT22;11286;45.596;5.284;2023-04-25T14:53:39;22.30;99.90
22235;DHT22;11286;45.596;5.284;2023-04-25T14:56:05;22.70;99.90
22235;DHT22;11286;45.596;5.284;2023-04-25T14:58:31;22.70;99.90
22235;DHT22;11286;45.596;5.284;2023-04-25T15:00:56;22.60;99.90
22235;DHT22;11286;45.596;5.284;2023-04-25T15:03:22;22.50;99.90
22235;DHT22;11286;45.596;5.284;2023-04-25T15:05:48;22.40;99.90
22235;DHT22;11286;45.596;5.284;2023-04-25T15:08:13;22.10;99.90
22235;DHT22;11286;45.596;5.284;2023-04-25T15:10:39;22.30;99.90
22235;DHT22;11286;45.596;5.284;2023-04-25T15:13:05;22.20;99.90
22235;DHT22;11286;45.596;5.284;2023-04-25T15:15:30;22.70;99.90
22235;DHT22;11286;45.596;5.284;2023-04-25T15:17:57;23.10;99.90
22235;DHT22;11286;45.596;5.284;2023-04-25T15:20:23;22.90;99.90
22235;DHT22;11286;45.596;5.284;2023-04-25T15:22:49;22.70;99.90
22235;DHT22;11286;45.596;5.284;2023-04-25T15:25:15;22.50;99.90
22235;DHT22;11286;45.596;5.284;2023-04-25T15:27:44;22.60;99.90